Time;durP1;ratioP1;P1;durP2;ratioP2;P2;SDS_P1;SDS_P2;PMS_P1;PMS_P2;Temp;Humidity;BMP_temperature;BMP_pressure;BME280_temperature;BME280_humidity;BME280_pressure;Samples;Min_cycle;Max_cycle;Signal;HPM_P1;HPM_P2
2023/05/14 17:20:33;;;;;;;;;;;;;;;24.28;33.04;97678.78;5017368;24;19932;-66
2023/05/14 17:22:58;;;;;;;;;;;;;;;24.34;34.11;97680.66;4858333;29;20389;-65
2023/05/14 17:25:25;;;;;;;;;;;;;;;23.93;34.31;97680.81;4860501;29;19959;-66
2023/05/14 17:27:50;;;;;;;;;;;;;;;23.74;34.44;97682.41;4860137;29;19920;-66
2023/05/14 17:30:15;;;;;;;;;;;;;;;23.62;34.96;97689.34;4859537;29;19927;-66
2023/05/14 17:32:40;;;;;;;;;;;;;;;23.39;36.17;97682.44;4860479;29;19927;-66
2023/05/14 17:35:06;;;;;;;;;;;;;;;23.03;36.32;97689.91;4861369;29;19924;-66
2023/05/14 17:37:32;;;;;;;;;;;;;;;22.86;37.12;97684.81;4850614;29;19927;-65
2023/05/14 17:39:57;;;;;;;;;;;;;;;22.68;37.68;97685.31;4842510;29;20386;-66
2023/05/14 17:42:22;;;;;;;;;;;;;;;22.49;37.86;97681.47;4851100;29;20007;-66
2023/05/14 17:44:48;;;;;;;;;;;;;;;22.25;38.77;97679.19;4861458;29;19927;-66
2023/05/14 17:47:13;;;;;;;;;;;;;;;22.15;39.13;97689.38;4860345;29;19920;-65
2023/05/14 17:49:38;;;;;;;;;;;;;;;22.22;38.73;97690.25;4859344;29;20015;-66
2023/05/14 17:52:04;;;;;;;;;;;;;;;21.89;39.93;97687.25;4860304;29;20003;-66
2023/05/14 17:54:29;;;;;;;;;;;;;;;21.64;40.07;97686.75;4861076;29;19943;-65
2023/05/14 17:56:54;;;;;;;;;;;;;;;21.54;39.99;97687.91;4860919;29;19920;-66
2023/05/14 17:59:20;;;;;;;;;;;;;;;21.23;40.74;97679.25;4859951;29;19965;-66
2023/05/14 18:01:45;;;;;;;;;;;;;;;21.13;41.61;97689.38;4860736;29;19920;-66
2023/05/14 18:04:10;;;;;;;;;;;;;;;20.80;42.37;97690.56;4861856;29;19920;-66
2023/05/14 18:06:35;;;;;;;;;;;;;;;20.44;43.60;97684.22;4861095;29;19941;-65
2023/05/14 18:09:01;;;;;;;;;;;;;;;20.22;44.13;97689.41;4860777;29;19920;-65
2023/05/14 18:11:31;;;;;;;;;;;;;;;19.97;44.92;97683.44;4857476;29;20008;-66
2023/05/14 18:13:56;;;;;;;;;;;;;;;19.84;45.86;97693.84;4834208;29;19924;-66
2023/05/14 18:16:21;;;;;;;;;;;;;;;19.56;46.32;97690.81;4862881;29;20412;-66
2023/05/14 18:18:47;;;;;;;;;;;;;;;19.34;46.62;97693.25;4859176;29;19920;-66
2023/05/14 18:21:12;;;;;;;;;;;;;;;19.16;47.56;97705.94;4860189;29;19927;-66
2023/05/14 18:23:37;;;;;;;;;;;;;;;18.98;48.29;97695.53;4846192;29;20006;-66
2023/05/14 18:26:02;;;;;;;;;;;;;;;18.74;48.42;97702.56;4844262;29;19920;-65
2023/05/14 18:28:28;;;;;;;;;;;;;;;18.63;49.11;97705.53;4847989;29;20394;-66
2023/05/14 18:30:53;;;;;;;;;;;;;;;18.43;49.73;97707.69;4861027;29;20397;-65
2023/05/14 18:33:18;;;;;;;;;;;;;;;18.49;50.66;97709.69;4855918;29;20307;-65
2023/05/14 18:35:43;;;;;;;;;;;;;;;18.68;51.41;97713.81;4861019;29;20318;-65
2023/05/14 18:38:10;;;;;;;;;;;;;;;18.67;51.54;97712.16;4859050;29;19924;-65
2023/05/14 18:40:35;;;;;;;;;;;;;;;18.38;52.25;97712.69;4860671;29;19969;-65
2023/05/14 18:43:01;;;;;;;;;;;;;;;18.13;53.48;97730.41;4856845;29;19928;-65
2023/05/14 18:45:26;;;;;;;;;;;;;;;17.89;54.40;97723.25;4856972;29;20016;-65
2023/05/14 18:47:51;;;;;;;;;;;;;;;17.75;55.35;97716.72;4861762;29;20366;-65
2023/05/14 18:50:16;;;;;;;;;;;;;;;17.60;56.45;97728.97;4858382;29;20272;-65
2023/05/14 18:52:42;;;;;;;;;;;;;;;17.54;56.65;97729.59;4857140;29;20317;-65
2023/05/14 18:55:07;;;;;;;;;;;;;;;17.39;57.36;97728.56;4846466;29;20401;-66
2023/05/14 18:57:32;;;;;;;;;;;;;;;17.33;57.88;97724.72;4858545;29;19920;-65
2023/05/14 19:00:00;;;;;;;;;;;;;;;17.13;58.80;97726.75;4857434;29;20373;-65
2023/05/14 19:02:25;;;;;;;;;;;;;;;17.14;58.47;97728.44;4857871;29;19931;-65
2023/05/14 19:04:50;;;;;;;;;;;;;;;17.07;59.10;97724.78;4845552;29;20014;-65
2023/05/14 19:07:16;;;;;;;;;;;;;;;16.96;59.09;97727.66;4860779;29;20008;-65
2023/05/14 19:09:41;;;;;;;;;;;;;;;16.91;59.63;97722.84;4855609;29;20027;-65
2023/05/14 19:12:06;;;;;;;;;;;;;;;16.89;59.84;97738.06;4858534;29;19920;-65
2023/05/14 19:14:31;;;;;;;;;;;;;;;16.87;60.19;97740.03;4859425;29;20306;-65
2023/05/14 19:16:57;;;;;;;;;;;;;;;16.81;60.51;97740.66;4858179;29;20027;-66
2023/05/14 19:19:23;;;;;;;;;;;;;;;16.79;60.82;97739.97;4858267;29;19998;-65
2023/05/14 19:21:48;;;;;;;;;;;;;;;16.73;60.94;97741.41;4863220;29;20007;-65
2023/05/14 19:24:13;;;;;;;;;;;;;;;16.67;60.82;97747.31;4860364;29;20018;-65
2023/05/14 19:26:38;;;;;;;;;;;;;;;16.57;61.42;97749.22;4857142;29;20026;-66
2023/05/14 19:29:03;;;;;;;;;;;;;;;16.49;61.32;97744.72;4857064;29;19924;-65
2023/05/14 19:31:29;;;;;;;;;;;;;;;16.38;61.85;97751.09;4857349;29;19924;-65
2023/05/14 19:33:54;;;;;;;;;;;;;;;16.36;62.21;97755.69;4858913;29;20401;-65
2023/05/14 19:36:19;;;;;;;;;;;;;;;16.20;62.68;97752.88;4857055;29;19920;-65
2023/05/14 19:38:45;;;;;;;;;;;;;;;16.12;62.63;97752.81;4842303;29;19920;-65
2023/05/14 19:41:10;;;;;;;;;;;;;;;16.05;63.09;97752.59;4855551;29;19920;-65
2023/05/14 19:43:35;;;;;;;;;;;;;;;15.92;63.42;97751.28;4854892;29;20418;-65
2023/05/14 19:46:00;;;;;;;;;;;;;;;15.83;63.79;97743.28;4857153;29;19924;-65
2023/05/14 19:48:26;;;;;;;;;;;;;;;15.76;64.22;97749.31;4858841;29;20363;-65
2023/05/14 19:50:51;;;;;;;;;;;;;;;15.71;63.75;97743.66;4848715;29;20372;-65
2023/05/14 19:53:16;;;;;;;;;;;;;;;15.53;64.33;97747.06;4855901;29;20378;-65
2023/05/14 19:55:41;;;;;;;;;;;;;;;15.40;64.67;97747.38;4859251;29;20007;-65
2023/05/14 19:58:07;;;;;;;;;;;;;;;15.27;65.13;97744.25;4857628;29;20018;-65
2023/05/14 20:00:32;;;;;;;;;;;;;;;15.17;65.05;97746.09;4842742;29;20382;-65
2023/05/14 20:02:58;;;;;;;;;;;;;;;15.12;65.20;97748.34;4856361;29;19935;-66
2023/05/14 20:05:24;;;;;;;;;;;;;;;15.18;65.19;97748.59;4841551;29;19920;-65
2023/05/14 20:07:50;;;;;;;;;;;;;;;15.17;65.59;97757.50;4842978;29;19920;-65
2023/05/14 20:10:15;;;;;;;;;;;;;;;15.09;66.04;97752.09;4858759;29;20382;-65
2023/05/14 20:12:40;;;;;;;;;;;;;;;15.02;66.41;97751.03;4856774;29;20394;-65
2023/05/14 20:15:06;;;;;;;;;;;;;;;14.96;66.51;97759.50;4858869;29;19920;-65
2023/05/14 20:17:31;;;;;;;;;;;;;;;14.89;66.87;97759.25;4858628;29;19928;-65
2023/05/14 20:19:57;;;;;;;;;;;;;;;14.86;66.92;97753.41;4857934;29;20011;-65
2023/05/14 20:22:22;;;;;;;;;;;;;;;14.84;67.16;97761.50;4857272;29;20260;-65
2023/05/14 20:24:47;;;;;;;;;;;;;;;14.88;67.23;97757.59;4859147;29;20344;-65
2023/05/14 20:27:12;;;;;;;;;;;;;;;14.94;67.23;97762.31;4858418;29;19916;-65
